Scorpio — WDI9956 — position and weather

sailwx.info

Track history (hours):
 
Tides and Currents Weather Stations Pressure Air Temp Water Temp Dewpoint Dewpoint Depression Visibility Wind Speed Wind Dir Waves Ship Positions

Scorpio

Owner: Scorpio LLC, Athol, ID. More information available from US FCC via Universal Licensing System and Coast Guard Vessel Documentation Center.

Last reported at 2018-Jul-13 16:55 UTC. Time now 2018-Jul-17 04:03 UTC.
Position N 52°20' W 128°23'.

Length 46 m; draft 4.7 m.

Type: Pleasure craft. MMSI: 367753860.

Date/timePositionNaut miles runAvg speedWind from/ knotsBaromVisibWave heightAir tempDewpointWater temp
2018-Jul-13 16:55N 52°20' W 128°23'4 7.9
2018-Jul-13 16:21N 52°16' W 128°23'411.5
2018-Jul-13 15:59N 52°15' W 128°16'16 0.7
2018-Jul-12 17:59N 52°09' W 127°52'612.1
2018-Jul-12 17:30N 52°03' W 127°55'611.8
2018-Jul-12 17:00N 51°58' W 127°56'611.6
2018-Jul-12 16:31N 51°52' W 127°53'1 2.4
2018-Jul-12 16:00N 51°52' W 127°51'0 0.1
2018-Jul-12 15:29N 51°52' W 127°51'0 0.0
2018-Jul-12 15:00N 51°52' W 127°51'0 0.0
2018-Jul-12 14:29N 51°52' W 127°51'0 0.1
2018-Jul-12 13:57N 51°52' W 127°51'0 0.0
2018-Jul-12 13:30N 51°52' W 127°51'0 0.0
2018-Jul-12 12:58N 51°52' W 127°51'0 0.0
2018-Jul-12 12:26N 51°52' W 127°51'0 0.0
2018-Jul-12 12:00N 51°52' W 127°51'0 0.1
2018-Jul-12 11:30N 51°52' W 127°51'0 0.1
2018-Jul-12 11:00N 51°52' W 127°51'0 0.0
2018-Jul-12 10:30N 51°52' W 127°51'0 0.0
2018-Jul-12 10:00N 51°52' W 127°51'0 0.0
2018-Jul-12 09:28N 51°52' W 127°51'0 0.0
2018-Jul-12 09:00N 51°52' W 127°51'0 0.0
2018-Jul-12 08:30N 51°52' W 127°51'0 0.0
2018-Jul-12 08:00N 51°52' W 127°51'0 0.1
2018-Jul-12 07:30N 51°52' W 127°51'0 0.1
2018-Jul-12 07:00N 51°52' W 127°51'0 0.1
2018-Jul-12 06:30N 51°52' W 127°51'0 0.0
2018-Jul-12 06:00N 51°52' W 127°51'0 0.1
2018-Jul-12 05:30N 51°52' W 127°51'0 0.1
2018-Jul-12 05:00N 51°52' W 127°51'0 0.0
2018-Jul-12 04:30N 51°52' W 127°51'0 0.0
2018-Jul-12 04:00N 51°52' W 127°51'0 0.0
2018-Jul-12 03:26N 51°52' W 127°51'0 0.0
2018-Jul-12 02:58N 51°52' W 127°51'0 0.0
2018-Jul-12 02:28N 51°52' W 127°51'0 0.1
2018-Jul-12 02:00N 51°52' W 127°51'0 0.0
2018-Jul-12 01:30N 51°52' W 127°51'2 4.3
2018-Jul-12 01:00N 51°51' W 127°54'5 9.2
2018-Jul-12 00:30N 51°46' W 127°54'510.1
2018-Jul-12 00:00N 51°41' W 127°56'3 6.9
2018-Jul-11 23:30N 51°38' W 127°55'510.4
2018-Jul-11 23:00N 51°33' W 127°53'611.1
2018-Jul-11 22:30N 51°27' W 127°52'1610.1
2018-Jul-11 20:56N 51°12' W 127°50'511.3
2018-Jul-11 20:29N 51°07' W 127°45'611.5
2018-Jul-11 19:58N 51°03' W 127°38'611.5
2018-Jul-11 19:29N 50°59' W 127°33'510.8
2018-Jul-11 19:00N 50°56' W 127°26'610.7
2018-Jul-11 18:29N 50°53' W 127°19'711.7
2018-Jul-11 17:54N 50°49' W 127°09'74 4.1
2018-Jul-10 23:36N 50°17' W 125°24'511.9
2018-Jul-10 23:10N 50°12' W 125°22'211.4
2018-Jul-10 22:59N 50°10' W 125°22'4 9.3
2018-Jul-10 22:30N 50°06' W 125°18'4 7.2
2018-Jul-10 22:00N 50°04' W 125°13'0 0.1
2018-Jul-10 21:30N 50°04' W 125°13'0 0.0
2018-Jul-10 21:00N 50°04' W 125°13'0 0.0
2018-Jul-10 20:28N 50°04' W 125°13'0 0.0
2018-Jul-10 20:00N 50°04' W 125°13'0 0.0
2018-Jul-10 19:30N 50°04' W 125°13'0 0.0
2018-Jul-10 18:58N 50°04' W 125°13'0 0.0
2018-Jul-10 18:30N 50°04' W 125°13'0 0.0
2018-Jul-10 17:58N 50°04' W 125°13'0 0.0
2018-Jul-10 17:30N 50°04' W 125°13'0 0.0
2018-Jul-10 17:00N 50°04' W 125°13'0 0.1
2018-Jul-10 16:30N 50°04' W 125°13'0 0.0
2018-Jul-10 15:59N 50°04' W 125°13'0 0.0
2018-Jul-10 15:30N 50°04' W 125°13'0 0.0
2018-Jul-10 15:00N 50°04' W 125°13'0 0.0
2018-Jul-10 14:30N 50°04' W 125°13'0 0.0
2018-Jul-10 14:00N 50°04' W 125°13'0 0.0
2018-Jul-10 13:30N 50°04' W 125°13'0 0.0
2018-Jul-10 13:00N 50°04' W 125°13'0 0.0
2018-Jul-10 12:30N 50°04' W 125°13'0 0.0
2018-Jul-10 12:00N 50°04' W 125°13'0 0.0
2018-Jul-10 11:30N 50°04' W 125°13'0 0.1
2018-Jul-10 11:00N 50°04' W 125°13'0 0.1
2018-Jul-10 10:29N 50°04' W 125°13'0 0.1
2018-Jul-10 10:00N 50°04' W 125°13'0 0.0
2018-Jul-10 09:30N 50°04' W 125°13'0 0.0
2018-Jul-10 09:00N 50°04' W 125°13'0 0.0
2018-Jul-10 08:30N 50°04' W 125°13'0 0.0
2018-Jul-10 08:00N 50°04' W 125°13'0 0.0
2018-Jul-10 07:30N 50°04' W 125°13'0 0.0
2018-Jul-10 06:58N 50°04' W 125°13'0 0.0
2018-Jul-10 06:30N 50°04' W 125°13'0 0.0
2018-Jul-10 06:00N 50°04' W 125°13'0 0.0
2018-Jul-10 05:30N 50°04' W 125°13'0 0.1
2018-Jul-10 05:00N 50°04' W 125°13'0 0.0
2018-Jul-10 04:30N 50°04' W 125°13'0 0.0
2018-Jul-10 04:00N 50°04' W 125°13'0 0.0
2018-Jul-10 03:30N 50°04' W 125°13'0 0.0
2018-Jul-10 03:00N 50°04' W 125°13'0 0.1
2018-Jul-10 02:30N 50°04' W 125°13'0 0.1
2018-Jul-10 02:00N 50°04' W 125°13'0 0.1
2018-Jul-10 01:30N 50°04' W 125°13'0 0.0
2018-Jul-10 01:00N 50°04' W 125°13'0 0.0
2018-Jul-10 00:30N 50°04' W 125°13'0 0.0
2018-Jul-10 00:00N 50°04' W 125°13'0 0.0
2018-Jul-09 23:30N 50°04' W 125°13'0 0.1
2018-Jul-09 23:00N 50°04' W 125°13'0 0.0
2018-Jul-09 22:30N 50°04' W 125°13'0 0.0
2018-Jul-09 22:00N 50°04' W 125°13'0 0.1
2018-Jul-09 21:30N 50°04' W 125°13'0 0.0
2018-Jul-09 21:00N 50°04' W 125°13'0 0.0
2018-Jul-09 20:30N 50°04' W 125°13'0 0.0
2018-Jul-09 20:00N 50°04' W 125°13'0 0.0
2018-Jul-09 19:23N 50°04' W 125°13'0 0.0
2018-Jul-09 19:00N 50°04' W 125°13'0 0.1
2018-Jul-09 18:29N 50°04' W 125°13'0 0.0
2018-Jul-09 18:00N 50°04' W 125°13'0 0.0
2018-Jul-09 17:30N 50°04' W 125°13'0 0.0
2018-Jul-09 16:58N 50°04' W 125°13'0 0.1
2018-Jul-09 16:30N 50°04' W 125°13'0 0.0
2018-Jul-09 16:00N 50°04' W 125°13'0 0.0
2018-Jul-09 15:30N 50°04' W 125°13'0 0.0
2018-Jul-09 14:59N 50°04' W 125°13'0 0.0
2018-Jul-09 14:30N 50°04' W 125°13'0 0.0
2018-Jul-09 14:00N 50°04' W 125°13'0 0.0
2018-Jul-09 13:30N 50°04' W 125°13'0 0.0
2018-Jul-09 13:00N 50°04' W 125°13'0 0.0
2018-Jul-09 12:28N 50°04' W 125°13'0 0.0
2018-Jul-09 12:00N 50°04' W 125°13'0 0.0
2018-Jul-09 11:30N 50°04' W 125°13'0 0.0
2018-Jul-09 11:00N 50°04' W 125°13'0 0.0
2018-Jul-09 10:30N 50°04' W 125°13'0 0.0
2018-Jul-09 10:00N 50°04' W 125°13'0 0.0
2018-Jul-09 09:28N 50°04' W 125°13'0 0.0
2018-Jul-09 09:00N 50°04' W 125°13'0 0.1
2018-Jul-09 08:27N 50°04' W 125°13'0 0.0
2018-Jul-09 08:00N 50°04' W 125°13'0 0.0
2018-Jul-09 07:30N 50°04' W 125°13'0 0.0
2018-Jul-09 07:00N 50°04' W 125°13'0 0.0
2018-Jul-09 06:29N 50°04' W 125°13'0 0.1
2018-Jul-09 05:56N 50°04' W 125°13'0 0.0
2018-Jul-09 05:28N 50°04' W 125°13'0 0.0
2018-Jul-09 05:00N 50°04' W 125°13'0 0.0
2018-Jul-09 04:30N 50°04' W 125°13'0 0.0
2018-Jul-09 04:00N 50°04' W 125°13'0 0.0
2018-Jul-09 03:30N 50°04' W 125°13'0 0.0
2018-Jul-09 03:00N 50°04' W 125°13'0 0.0
2018-Jul-09 02:28N 50°04' W 125°13'0 0.0
2018-Jul-09 02:00N 50°04' W 125°13'0 0.1
2018-Jul-09 01:30N 50°04' W 125°13'0 0.0
2018-Jul-09 01:00N 50°04' W 125°13'0 0.1
2018-Jul-09 00:30N 50°04' W 125°13'0 0.0
2018-Jul-09 00:00N 50°04' W 125°13'0 0.0
2018-Jul-08 23:30N 50°04' W 125°13'0 0.1
2018-Jul-08 23:00N 50°04' W 125°13'0 0.1
2018-Jul-08 22:30N 50°04' W 125°13'0 0.0
2018-Jul-08 21:58N 50°04' W 125°13'0 0.1
2018-Jul-08 21:30N 50°04' W 125°13'0 0.0
2018-Jul-08 21:00N 50°04' W 125°13'0 0.0
2018-Jul-08 20:28N 50°04' W 125°13'0 0.0
2018-Jul-08 20:00N 50°04' W 125°13'0 0.0
2018-Jul-08 19:30N 50°04' W 125°13'0 0.0
2018-Jul-08 19:00N 50°04' W 125°13'0 0.0
2018-Jul-08 18:30N 50°04' W 125°13'0 0.0
2018-Jul-08 18:00N 50°04' W 125°13'0 0.0
2018-Jul-08 17:30N 50°04' W 125°13'0 0.0
2018-Jul-08 16:59N 50°04' W 125°13'0 0.0
2018-Jul-08 16:30N 50°04' W 125°13'0 0.0
2018-Jul-08 16:00N 50°04' W 125°13'0 0.0
2018-Jul-08 15:30N 50°04' W 125°13'0 0.0
2018-Jul-08 15:00N 50°04' W 125°13'0 0.0
2018-Jul-08 14:29N 50°04' W 125°13'0 0.1
2018-Jul-08 14:00N 50°04' W 125°13'0 0.0
2018-Jul-08 13:29N 50°04' W 125°13'0 0.0
2018-Jul-08 13:00N 50°04' W 125°13'0 0.0
2018-Jul-08 12:29N 50°04' W 125°13'0 0.0
2018-Jul-08 12:00N 50°04' W 125°13'0 0.1
2018-Jul-08 11:30N 50°04' W 125°13'0 0.1
2018-Jul-08 11:00N 50°04' W 125°13'0 0.0
2018-Jul-08 10:30N 50°04' W 125°13'0 0.0
2018-Jul-08 10:00N 50°04' W 125°13'0 0.0
2018-Jul-08 09:30N 50°04' W 125°13'0 0.0
2018-Jul-08 09:00N 50°04' W 125°13'0 0.1
2018-Jul-08 08:30N 50°04' W 125°13'0 0.0
2018-Jul-08 07:58N 50°04' W 125°13'0 0.0
2018-Jul-08 07:26N 50°04' W 125°13'0 0.0
2018-Jul-08 06:57N 50°04' W 125°13'0 0.0
2018-Jul-08 06:26N 50°04' W 125°13'0 0.0
2018-Jul-08 06:00N 50°04' W 125°13'0 0.0
2018-Jul-08 05:30N 50°04' W 125°13'0 0.0
2018-Jul-08 05:00N 50°04' W 125°13'0 0.1
2018-Jul-08 04:30N 50°04' W 125°13'0 0.1
2018-Jul-08 04:00N 50°04' W 125°13'0 0.1
2018-Jul-08 03:29N 50°04' W 125°13'0 0.1
2018-Jul-08 03:00N 50°04' W 125°13'0 0.0
2018-Jul-08 02:30N 50°04' W 125°13'0 0.0
2018-Jul-08 02:00N 50°04' W 125°13'0 0.0
2018-Jul-08 01:28N 50°04' W 125°13'0 0.0
2018-Jul-08 01:00N 50°04' W 125°13'0 0.0
2018-Jul-08 00:30N 50°04' W 125°13'0 0.1
2018-Jul-08 00:00N 50°04' W 125°13'0 0.0
2018-Jul-07 23:30N 50°04' W 125°13'0 0.0
2018-Jul-07 23:00N 50°04' W 125°13'0 0.0
2018-Jul-07 22:30N 50°04' W 125°13'0 0.0
2018-Jul-07 22:00N 50°04' W 125°13'0 0.0
2018-Jul-07 21:30N 50°04' W 125°13'0 0.0
2018-Jul-07 21:00N 50°04' W 125°13'0 0.0
2018-Jul-07 20:30N 50°04' W 125°13'0 0.0
2018-Jul-07 20:00N 50°04' W 125°13'0 0.0
2018-Jul-07 19:30N 50°04' W 125°13'0 0.0
2018-Jul-07 19:00N 50°04' W 125°13'0 0.0
2018-Jul-07 18:30N 50°04' W 125°13'0 0.0
2018-Jul-07 18:00N 50°04' W 125°13'0 0.0
2018-Jul-07 17:30N 50°04' W 125°13'0 0.0
2018-Jul-07 17:00N 50°04' W 125°13'0 0.0
2018-Jul-07 16:30N 50°04' W 125°13'0 0.0
2018-Jul-07 16:00N 50°04' W 125°13'0 0.0
2018-Jul-07 15:30N 50°04' W 125°13'0 0.0
2018-Jul-07 15:01N 50°04' W 125°13'0 0.0
2018-Jul-07 14:30N 50°04' W 125°13'0 0.0
2018-Jul-07 14:00N 50°04' W 125°13'0 0.0
2018-Jul-07 13:30N 50°04' W 125°13'0 0.0
2018-Jul-07 13:00N 50°04' W 125°13'0 0.0
2018-Jul-07 12:30N 50°04' W 125°13'0 0.1
2018-Jul-07 12:00N 50°04' W 125°13'0 0.0
2018-Jul-07 11:30N 50°04' W 125°13'0 0.0
2018-Jul-07 11:00N 50°04' W 125°13'0 0.0
2018-Jul-07 10:30N 50°04' W 125°13'0 0.1
2018-Jul-07 10:01N 50°04' W 125°13'0 0.0
2018-Jul-07 09:30N 50°04' W 125°13'0 0.0
2018-Jul-07 09:00N 50°04' W 125°13'0 0.0
2018-Jul-07 08:30N 50°04' W 125°13'0 0.1
2018-Jul-07 07:59N 50°04' W 125°13'0 0.0
2018-Jul-07 07:30N 50°04' W 125°13'0 0.1
2018-Jul-07 07:00N 50°04' W 125°13'0 0.0
2018-Jul-07 06:30N 50°04' W 125°13'0 0.0
2018-Jul-07 06:00N 50°04' W 125°13'0 0.0
2018-Jul-07 05:30N 50°04' W 125°13'0 0.0
2018-Jul-07 05:00N 50°04' W 125°13'0 0.0
2018-Jul-07 04:30N 50°04' W 125°13'0 0.0
2018-Jul-07 04:00N 50°04' W 125°13'0 0.0
2018-Jul-07 03:30N 50°04' W 125°13'0 0.0
2018-Jul-07 03:00N 50°04' W 125°13'0 0.0
2018-Jul-07 02:30N 50°04' W 125°13'0 0.0
2018-Jul-07 02:00N 50°04' W 125°13'0 0.1
2018-Jul-07 01:30N 50°04' W 125°13'0 0.1
2018-Jul-07 00:57N 50°04' W 125°13'0 0.0
2018-Jul-07 00:30N 50°04' W 125°13'0 0.0
2018-Jul-07 00:00N 50°04' W 125°13'0 0.0
2018-Jul-06 23:30N 50°04' W 125°13'0 0.0
2018-Jul-06 23:01N 50°04' W 125°13'0 0.0
2018-Jul-06 22:30N 50°04' W 125°13'0 0.0
2018-Jul-06 22:00N 50°04' W 125°13'0 0.0
2018-Jul-06 21:30N 50°04' W 125°13'0 0.0
2018-Jul-06 21:00N 50°04' W 125°13'0 0.0
2018-Jul-06 20:30N 50°04' W 125°13'0 0.0
2018-Jul-06 20:00N 50°04' W 125°13'0 0.0
2018-Jul-06 19:30N 50°04' W 125°13'0 0.1
2018-Jul-06 19:00N 50°04' W 125°13'0 0.1
2018-Jul-06 18:30N 50°04' W 125°13'0 0.1
2018-Jul-06 18:00N 50°04' W 125°13'0 0.0
2018-Jul-06 17:30N 50°04' W 125°13'0 0.0
2018-Jul-06 17:00N 50°04' W 125°13'0 0.0
2018-Jul-06 16:29N 50°04' W 125°13'0 0.1
2018-Jul-06 16:00N 50°04' W 125°13'0 0.0
2018-Jul-06 15:30N 50°04' W 125°13'0 0.0
2018-Jul-06 15:00N 50°04' W 125°13'0 0.0
2018-Jul-06 14:30N 50°04' W 125°13'0 0.0
2018-Jul-06 14:00N 50°04' W 125°13'0 0.0
2018-Jul-06 13:30N 50°04' W 125°13'0 0.0
2018-Jul-06 12:59N 50°04' W 125°13'0 0.0
2018-Jul-06 12:30N 50°04' W 125°13'0 0.0
2018-Jul-06 12:00N 50°04' W 125°13'0 0.0
2018-Jul-06 11:30N 50°04' W 125°13'0 0.0
2018-Jul-06 11:00N 50°04' W 125°13'0 0.0
2018-Jul-06 10:30N 50°04' W 125°13'0 0.0
2018-Jul-06 10:00N 50°04' W 125°13'0 0.0
2018-Jul-06 09:30N 50°04' W 125°13'0 0.0
2018-Jul-06 09:00N 50°04' W 125°13'0 0.0
2018-Jul-06 08:28N 50°04' W 125°13'0 0.0
2018-Jul-06 08:00N 50°04' W 125°13'0 0.0
2018-Jul-06 07:28N 50°04' W 125°13'0 0.0
2018-Jul-06 07:00N 50°04' W 125°13'0 0.0
2018-Jul-06 06:29N 50°04' W 125°13'0 0.0
2018-Jul-06 06:00N 50°04' W 125°13'0 0.0
2018-Jul-06 05:30N 50°04' W 125°13'0 0.0
2018-Jul-06 05:00N 50°04' W 125°13'0 0.0
2018-Jul-06 04:29N 50°04' W 125°13'0 0.0
2018-Jul-06 04:00N 50°04' W 125°13'0 0.0
2018-Jul-06 03:30N 50°04' W 125°13'0 0.0
2018-Jul-06 02:59N 50°04' W 125°13'0 0.0
2018-Jul-06 02:30N 50°04' W 125°13'0 0.0
2018-Jul-06 02:00N 50°04' W 125°13'0 0.0
2018-Jul-06 01:30N 50°04' W 125°13'0 0.0
2018-Jul-06 01:00N 50°04' W 125°13'0 0.0
2018-Jul-06 00:30N 50°04' W 125°13'0 0.0
2018-Jul-06 00:00N 50°04' W 125°13'0 0.1
2018-Jul-05 23:30N 50°04' W 125°13'0 0.1
2018-Jul-05 23:00N 50°04' W 125°13'0 0.0
2018-Jul-05 22:29N 50°04' W 125°13'0 0.0
2018-Jul-05 22:00N 50°04' W 125°13'0 0.0
2018-Jul-05 21:30N 50°04' W 125°13'0 0.0
2018-Jul-05 21:00N 50°04' W 125°13'0 0.1
2018-Jul-05 20:30N 50°04' W 125°13'0 0.1
2018-Jul-05 20:00N 50°04' W 125°13'0 0.0
2018-Jul-05 19:30N 50°04' W 125°13'0 0.0
2018-Jul-05 19:00N 50°04' W 125°13'0 0.0
2018-Jul-05 18:30N 50°04' W 125°13'0 0.0
2018-Jul-05 18:00N 50°04' W 125°13'0 0.0
2018-Jul-05 17:30N 50°04' W 125°13'0 0.0
2018-Jul-05 17:00N 50°04' W 125°13'0 0.0
2018-Jul-05 16:30N 50°04' W 125°13'0 0.0
2018-Jul-05 16:00N 50°04' W 125°13'0 0.0
2018-Jul-05 15:30N 50°04' W 125°13'0 0.1
2018-Jul-05 15:00N 50°04' W 125°13'0 0.0
2018-Jul-05 14:00N 50°04' W 125°13'0 0.0
2018-Jul-05 13:29N 50°04' W 125°13'0 0.0
2018-Jul-05 13:00N 50°04' W 125°13'0 0.1
2018-Jul-05 12:29N 50°04' W 125°13'0 0.0
2018-Jul-05 12:00N 50°04' W 125°13'0 0.1
2018-Jul-05 11:30N 50°04' W 125°13'0 0.1
2018-Jul-05 11:00N 50°04' W 125°13'0 0.1
2018-Jul-05 10:30N 50°04' W 125°13'0 0.0
2018-Jul-05 10:00N 50°04' W 125°13'0 0.0
2018-Jul-05 09:30N 50°04' W 125°13'0 0.1
2018-Jul-05 09:00N 50°04' W 125°13'0 0.0
2018-Jul-05 08:30N 50°04' W 125°13'0 0.1
2018-Jul-05 08:00N 50°04' W 125°13'0 0.0
2018-Jul-05 07:30N 50°04' W 125°13'0 0.0
2018-Jul-05 07:00N 50°04' W 125°13'0 0.0
2018-Jul-05 06:30N 50°04' W 125°13'0 0.0
2018-Jul-05 05:59N 50°04' W 125°13'0 0.0
2018-Jul-05 05:30N 50°04' W 125°13'0 0.1
2018-Jul-05 05:00N 50°04' W 125°13'0 0.1
2018-Jul-05 04:30N 50°04' W 125°13'0 0.1
2018-Jul-05 04:00N 50°04' W 125°13'0 0.0
2018-Jul-05 03:24N 50°04' W 125°13'0 0.0
2018-Jul-05 03:00N 50°04' W 125°13'0 0.0
2018-Jul-05 02:30N 50°04' W 125°13'0 0.0
2018-Jul-05 02:00N 50°04' W 125°13'0 0.0
2018-Jul-05 01:30N 50°04' W 125°13'0 0.0
2018-Jul-05 01:00N 50°04' W 125°13'0 0.0
2018-Jul-05 00:20N 50°04' W 125°13'0 0.0
2018-Jul-05 00:00N 50°04' W 125°13'0 0.0
2018-Jul-04 23:30N 50°04' W 125°13'0 0.0
2018-Jul-04 23:00N 50°04' W 125°13'0 0.0
2018-Jul-04 22:30N 50°04' W 125°13'0 0.0
2018-Jul-04 22:00N 50°04' W 125°13'0 0.0
2018-Jul-04 21:29N 50°04' W 125°13'0 0.0
2018-Jul-04 21:00N 50°04' W 125°13'0 0.0
2018-Jul-04 20:30N 50°04' W 125°13'0 0.0
2018-Jul-04 20:00N 50°04' W 125°13'0 0.0
2018-Jul-04 19:31N 50°04' W 125°13'0 0.0
2018-Jul-04 18:58N 50°04' W 125°13'0 0.0
2018-Jul-04 18:30N 50°04' W 125°13'0 0.0
2018-Jul-04 17:59N 50°04' W 125°13'0 0.0
2018-Jul-04 17:30N 50°04' W 125°13'0 0.0
2018-Jul-04 17:00N 50°04' W 125°13'0 0.0
2018-Jul-04 16:30N 50°04' W 125°13'0 0.0
2018-Jul-04 15:59N 50°04' W 125°13'0 0.0
2018-Jul-04 15:29N 50°04' W 125°13'0 0.0
2018-Jul-04 15:00N 50°04' W 125°13'0 0.0
2018-Jul-04 14:30N 50°04' W 125°13'0 0.0
2018-Jul-04 14:00N 50°04' W 125°13'0 0.0
2018-Jul-04 13:30N 50°04' W 125°13'0 0.0
2018-Jul-04 13:00N 50°04' W 125°13'0 0.0
2018-Jul-04 12:30N 50°04' W 125°13'0 0.0
2018-Jul-04 12:00N 50°04' W 125°13'0 0.0
2018-Jul-04 11:30N 50°04' W 125°13'0 0.0
2018-Jul-04 11:00N 50°04' W 125°13'0 0.0
2018-Jul-04 10:30N 50°04' W 125°13'0 0.0
2018-Jul-04 10:00N 50°04' W 125°13'0 0.0
2018-Jul-04 09:30N 50°04' W 125°13'0 0.0
2018-Jul-04 08:58N 50°04' W 125°13'0 0.0
2018-Jul-04 08:30N 50°04' W 125°13'0 0.0
2018-Jul-04 08:00N 50°04' W 125°13'0 0.0
2018-Jul-04 07:31N 50°04' W 125°13'0 0.0
2018-Jul-04 07:00N 50°04' W 125°13'0 0.0
2018-Jul-04 06:30N 50°04' W 125°13'0 0.0
2018-Jul-04 06:00N 50°04' W 125°13'0 0.0
2018-Jul-04 05:30N 50°04' W 125°13'0 0.0
2018-Jul-04 05:00N 50°04' W 125°13'0 0.0
2018-Jul-04 04:30N 50°04' W 125°13'0 0.0
2018-Jul-04 04:00N 50°04' W 125°13'0 0.0
2018-Jul-04 03:30N 50°04' W 125°13'0 0.0
2018-Jul-04 03:00N 50°04' W 125°13'0 0.0
2018-Jul-04 02:29N 50°04' W 125°13'0 0.0
2018-Jul-04 02:00N 50°04' W 125°13'0 0.0
2018-Jul-04 01:30N 50°04' W 125°13'0 0.0
2018-Jul-04 01:00N 50°04' W 125°13'0 0.0
2018-Jul-04 00:30N 50°04' W 125°13'0 0.0
2018-Jul-04 00:00N 50°04' W 125°13'0 0.0
2018-Jul-03 23:30N 50°04' W 125°13'0 0.0
2018-Jul-03 23:00N 50°04' W 125°13'0 0.0
2018-Jul-03 22:30N 50°04' W 125°13'0 0.0
2018-Jul-03 22:01N 50°04' W 125°13'0 0.0
2018-Jul-03 21:30N 50°04' W 125°13'0 0.0
2018-Jul-03 21:00N 50°04' W 125°13'0 0.0
2018-Jul-03 20:30N 50°04' W 125°13'0 0.0
2018-Jul-03 20:00N 50°04' W 125°13'0 0.0
2018-Jul-03 19:30N 50°04' W 125°13'0 0.0
2018-Jul-03 19:00N 50°04' W 125°13'0 0.0
2018-Jul-03 18:30N 50°04' W 125°13'0 0.0
2018-Jul-03 18:00N 50°04' W 125°13'0 0.0
2018-Jul-03 17:30N 50°04' W 125°13'0 0.0
2018-Jul-03 17:00N 50°04' W 125°13'  
Track history (hours):
 
Tides and Currents Weather Stations Pressure Air Temp Water Temp Dewpoint Dewpoint Depression Visibility Wind Speed Wind Dir Waves Ship Positions

Scorpio

Owner: Scorpio LLC, Athol, ID. More information available from US FCC via Universal Licensing System and Coast Guard Vessel Documentation Center.

Last reported at 2018-Jul-13 16:55 UTC. Time now 2018-Jul-17 04:03 UTC.
Position N 52°20' W 128°23'.

Length 46 m; draft 4.7 m.

Type: Pleasure craft. MMSI: 367753860.

Date/timePositionNaut miles runAvg speedWind from/ knotsBaromVisibWave heightAir tempDewpointWater temp
2018-Jul-13 16:55N 52°20' W 128°23'4 7.9
2018-Jul-13 16:21N 52°16' W 128°23'411.5
2018-Jul-13 15:59N 52°15' W 128°16'16 0.7
2018-Jul-12 17:59N 52°09' W 127°52'612.1
2018-Jul-12 17:30N 52°03' W 127°55'611.8
2018-Jul-12 17:00N 51°58' W 127°56'611.6
2018-Jul-12 16:31N 51°52' W 127°53'1 2.4
2018-Jul-12 16:00N 51°52' W 127°51'0 0.1
2018-Jul-12 15:29N 51°52' W 127°51'0 0.0
2018-Jul-12 15:00N 51°52' W 127°51'0 0.0
2018-Jul-12 14:29N 51°52' W 127°51'0 0.1
2018-Jul-12 13:57N 51°52' W 127°51'0 0.0
2018-Jul-12 13:30N 51°52' W 127°51'0 0.0
2018-Jul-12 12:58N 51°52' W 127°51'0 0.0
2018-Jul-12 12:26N 51°52' W 127°51'0 0.0
2018-Jul-12 12:00N 51°52' W 127°51'0 0.1
2018-Jul-12 11:30N 51°52' W 127°51'0 0.1
2018-Jul-12 11:00N 51°52' W 127°51'0 0.0
2018-Jul-12 10:30N 51°52' W 127°51'0 0.0
2018-Jul-12 10:00N 51°52' W 127°51'0 0.0
2018-Jul-12 09:28N 51°52' W 127°51'0 0.0
2018-Jul-12 09:00N 51°52' W 127°51'0 0.0
2018-Jul-12 08:30N 51°52' W 127°51'0 0.0
2018-Jul-12 08:00N 51°52' W 127°51'0 0.1
2018-Jul-12 07:30N 51°52' W 127°51'0 0.1
2018-Jul-12 07:00N 51°52' W 127°51'0 0.1
2018-Jul-12 06:30N 51°52' W 127°51'0 0.0
2018-Jul-12 06:00N 51°52' W 127°51'0 0.1
2018-Jul-12 05:30N 51°52' W 127°51'0 0.1
2018-Jul-12 05:00N 51°52' W 127°51'0 0.0
2018-Jul-12 04:30N 51°52' W 127°51'0 0.0
2018-Jul-12 04:00N 51°52' W 127°51'0 0.0
2018-Jul-12 03:26N 51°52' W 127°51'0 0.0
2018-Jul-12 02:58N 51°52' W 127°51'0 0.0
2018-Jul-12 02:28N 51°52' W 127°51'0 0.1
2018-Jul-12 02:00N 51°52' W 127°51'0 0.0
2018-Jul-12 01:30N 51°52' W 127°51'2 4.3
2018-Jul-12 01:00N 51°51' W 127°54'5 9.2
2018-Jul-12 00:30N 51°46' W 127°54'510.1
2018-Jul-12 00:00N 51°41' W 127°56'3 6.9
2018-Jul-11 23:30N 51°38' W 127°55'510.4
2018-Jul-11 23:00N 51°33' W 127°53'611.1
2018-Jul-11 22:30N 51°27' W 127°52'1610.1
2018-Jul-11 20:56N 51°12' W 127°50'511.3
2018-Jul-11 20:29N 51°07' W 127°45'611.5
2018-Jul-11 19:58N 51°03' W 127°38'611.5
2018-Jul-11 19:29N 50°59' W 127°33'510.8
2018-Jul-11 19:00N 50°56' W 127°26'610.7
2018-Jul-11 18:29N 50°53' W 127°19'711.7
2018-Jul-11 17:54N 50°49' W 127°09'74 4.1
2018-Jul-10 23:36N 50°17' W 125°24'511.9
2018-Jul-10 23:10N 50°12' W 125°22'211.4
2018-Jul-10 22:59N 50°10' W 125°22'4 9.3
2018-Jul-10 22:30N 50°06' W 125°18'4 7.2
2018-Jul-10 22:00N 50°04' W 125°13'0 0.1
2018-Jul-10 21:30N 50°04' W 125°13'0 0.0
2018-Jul-10 21:00N 50°04' W 125°13'0 0.0
2018-Jul-10 20:28N 50°04' W 125°13'0 0.0
2018-Jul-10 20:00N 50°04' W 125°13'0 0.0
2018-Jul-10 19:30N 50°04' W 125°13'0 0.0
2018-Jul-10 18:58N 50°04' W 125°13'0 0.0
2018-Jul-10 18:30N 50°04' W 125°13'0 0.0
2018-Jul-10 17:58N 50°04' W 125°13'0 0.0
2018-Jul-10 17:30N 50°04' W 125°13'0 0.0
2018-Jul-10 17:00N 50°04' W 125°13'0 0.1
2018-Jul-10 16:30N 50°04' W 125°13'0 0.0
2018-Jul-10 15:59N 50°04' W 125°13'0 0.0
2018-Jul-10 15:30N 50°04' W 125°13'0 0.0
2018-Jul-10 15:00N 50°04' W 125°13'0 0.0
2018-Jul-10 14:30N 50°04' W 125°13'0 0.0
2018-Jul-10 14:00N 50°04' W 125°13'0 0.0
2018-Jul-10 13:30N 50°04' W 125°13'0 0.0
2018-Jul-10 13:00N 50°04' W 125°13'0 0.0
2018-Jul-10 12:30N 50°04' W 125°13'0 0.0
2018-Jul-10 12:00N 50°04' W 125°13'0 0.0
2018-Jul-10 11:30N 50°04' W 125°13'0 0.1
2018-Jul-10 11:00N 50°04' W 125°13'0 0.1
2018-Jul-10 10:29N 50°04' W 125°13'0 0.1
2018-Jul-10 10:00N 50°04' W 125°13'0 0.0
2018-Jul-10 09:30N 50°04' W 125°13'0 0.0
2018-Jul-10 09:00N 50°04' W 125°13'0 0.0
2018-Jul-10 08:30N 50°04' W 125°13'0 0.0
2018-Jul-10 08:00N 50°04' W 125°13'0 0.0
2018-Jul-10 07:30N 50°04' W 125°13'0 0.0
2018-Jul-10 06:58N 50°04' W 125°13'0 0.0
2018-Jul-10 06:30N 50°04' W 125°13'0 0.0
2018-Jul-10 06:00N 50°04' W 125°13'0 0.0
2018-Jul-10 05:30N 50°04' W 125°13'0 0.1
2018-Jul-10 05:00N 50°04' W 125°13'0 0.0
2018-Jul-10 04:30N 50°04' W 125°13'0 0.0
2018-Jul-10 04:00N 50°04' W 125°13'0 0.0
2018-Jul-10 03:30N 50°04' W 125°13'0 0.0
2018-Jul-10 03:00N 50°04' W 125°13'0 0.1
2018-Jul-10 02:30N 50°04' W 125°13'0 0.1
2018-Jul-10 02:00N 50°04' W 125°13'0 0.1
2018-Jul-10 01:30N 50°04' W 125°13'0 0.0
2018-Jul-10 01:00N 50°04' W 125°13'0 0.0
2018-Jul-10 00:30N 50°04' W 125°13'0 0.0
2018-Jul-10 00:00N 50°04' W 125°13'0 0.0
2018-Jul-09 23:30N 50°04' W 125°13'0 0.1
2018-Jul-09 23:00N 50°04' W 125°13'0 0.0
2018-Jul-09 22:30N 50°04' W 125°13'0 0.0
2018-Jul-09 22:00N 50°04' W 125°13'0 0.1
2018-Jul-09 21:30N 50°04' W 125°13'0 0.0
2018-Jul-09 21:00N 50°04' W 125°13'0 0.0
2018-Jul-09 20:30N 50°04' W 125°13'0 0.0
2018-Jul-09 20:00N 50°04' W 125°13'0 0.0
2018-Jul-09 19:23N 50°04' W 125°13'0 0.0
2018-Jul-09 19:00N 50°04' W 125°13'0 0.1
2018-Jul-09 18:29N 50°04' W 125°13'0 0.0
2018-Jul-09 18:00N 50°04' W 125°13'0 0.0
2018-Jul-09 17:30N 50°04' W 125°13'0 0.0
2018-Jul-09 16:58N 50°04' W 125°13'0 0.1
2018-Jul-09 16:30N 50°04' W 125°13'0 0.0
2018-Jul-09 16:00N 50°04' W 125°13'0 0.0
2018-Jul-09 15:30N 50°04' W 125°13'0 0.0
2018-Jul-09 14:59N 50°04' W 125°13'0 0.0
2018-Jul-09 14:30N 50°04' W 125°13'0 0.0
2018-Jul-09 14:00N 50°04' W 125°13'0 0.0
2018-Jul-09 13:30N 50°04' W 125°13'0 0.0
2018-Jul-09 13:00N 50°04' W 125°13'0 0.0
2018-Jul-09 12:28N 50°04' W 125°13'0 0.0
2018-Jul-09 12:00N 50°04' W 125°13'0 0.0
2018-Jul-09 11:30N 50°04' W 125°13'0 0.0
2018-Jul-09 11:00N 50°04' W 125°13'0 0.0
2018-Jul-09 10:30N 50°04' W 125°13'0 0.0
2018-Jul-09 10:00N 50°04' W 125°13'0 0.0
2018-Jul-09 09:28N 50°04' W 125°13'0 0.0
2018-Jul-09 09:00N 50°04' W 125°13'0 0.1
2018-Jul-09 08:27N 50°04' W 125°13'0 0.0
2018-Jul-09 08:00N 50°04' W 125°13'0 0.0
2018-Jul-09 07:30N 50°04' W 125°13'0 0.0
2018-Jul-09 07:00N 50°04' W 125°13'0 0.0
2018-Jul-09 06:29N 50°04' W 125°13'0 0.1
2018-Jul-09 05:56N 50°04' W 125°13'0 0.0
2018-Jul-09 05:28N 50°04' W 125°13'0 0.0
2018-Jul-09 05:00N 50°04' W 125°13'0 0.0
2018-Jul-09 04:30N 50°04' W 125°13'0 0.0
2018-Jul-09 04:00N 50°04' W 125°13'0 0.0
2018-Jul-09 03:30N 50°04' W 125°13'0 0.0
2018-Jul-09 03:00N 50°04' W 125°13'0 0.0
2018-Jul-09 02:28N 50°04' W 125°13'0 0.0
2018-Jul-09 02:00N 50°04' W 125°13'0 0.1
2018-Jul-09 01:30N 50°04' W 125°13'0 0.0
2018-Jul-09 01:00N 50°04' W 125°13'0 0.1
2018-Jul-09 00:30N 50°04' W 125°13'0 0.0
2018-Jul-09 00:00N 50°04' W 125°13'0 0.0
2018-Jul-08 23:30N 50°04' W 125°13'0 0.1
2018-Jul-08 23:00N 50°04' W 125°13'0 0.1
2018-Jul-08 22:30N 50°04' W 125°13'0 0.0
2018-Jul-08 21:58N 50°04' W 125°13'0 0.1
2018-Jul-08 21:30N 50°04' W 125°13'0 0.0
2018-Jul-08 21:00N 50°04' W 125°13'0 0.0
2018-Jul-08 20:28N 50°04' W 125°13'0 0.0
2018-Jul-08 20:00N 50°04' W 125°13'0 0.0
2018-Jul-08 19:30N 50°04' W 125°13'0 0.0
2018-Jul-08 19:00N 50°04' W 125°13'0 0.0
2018-Jul-08 18:30N 50°04' W 125°13'0 0.0
2018-Jul-08 18:00N 50°04' W 125°13'0 0.0
2018-Jul-08 17:30N 50°04' W 125°13'0 0.0
2018-Jul-08 16:59N 50°04' W 125°13'0 0.0
2018-Jul-08 16:30N 50°04' W 125°13'0 0.0
2018-Jul-08 16:00N 50°04' W 125°13'0 0.0
2018-Jul-08 15:30N 50°04' W 125°13'0 0.0
2018-Jul-08 15:00N 50°04' W 125°13'0 0.0
2018-Jul-08 14:29N 50°04' W 125°13'0 0.1
2018-Jul-08 14:00N 50°04' W 125°13'0 0.0
2018-Jul-08 13:29N 50°04' W 125°13'0 0.0
2018-Jul-08 13:00N 50°04' W 125°13'0 0.0
2018-Jul-08 12:29N 50°04' W 125°13'0 0.0
2018-Jul-08 12:00N 50°04' W 125°13'0 0.1
2018-Jul-08 11:30N 50°04' W 125°13'0 0.1
2018-Jul-08 11:00N 50°04' W 125°13'0 0.0
2018-Jul-08 10:30N 50°04' W 125°13'0 0.0
2018-Jul-08 10:00N 50°04' W 125°13'0 0.0
2018-Jul-08 09:30N 50°04' W 125°13'0 0.0
2018-Jul-08 09:00N 50°04' W 125°13'0 0.1
2018-Jul-08 08:30N 50°04' W 125°13'0 0.0
2018-Jul-08 07:58N 50°04' W 125°13'0 0.0
2018-Jul-08 07:26N 50°04' W 125°13'0 0.0
2018-Jul-08 06:57N 50°04' W 125°13'0 0.0
2018-Jul-08 06:26N 50°04' W 125°13'0 0.0
2018-Jul-08 06:00N 50°04' W 125°13'0 0.0
2018-Jul-08 05:30N 50°04' W 125°13'0 0.0
2018-Jul-08 05:00N 50°04' W 125°13'0 0.1
2018-Jul-08 04:30N 50°04' W 125°13'0 0.1
2018-Jul-08 04:00N 50°04' W 125°13'0 0.1
2018-Jul-08 03:29N 50°04' W 125°13'0 0.1
2018-Jul-08 03:00N 50°04' W 125°13'0 0.0
2018-Jul-08 02:30N 50°04' W 125°13'0 0.0
2018-Jul-08 02:00N 50°04' W 125°13'0 0.0
2018-Jul-08 01:28N 50°04' W 125°13'0 0.0
2018-Jul-08 01:00N 50°04' W 125°13'0 0.0
2018-Jul-08 00:30N 50°04' W 125°13'0 0.1
2018-Jul-08 00:00N 50°04' W 125°13'0 0.0
2018-Jul-07 23:30N 50°04' W 125°13'0 0.0
2018-Jul-07 23:00N 50°04' W 125°13'0 0.0
2018-Jul-07 22:30N 50°04' W 125°13'0 0.0
2018-Jul-07 22:00N 50°04' W 125°13'0 0.0
2018-Jul-07 21:30N 50°04' W 125°13'0 0.0
2018-Jul-07 21:00N 50°04' W 125°13'0 0.0
2018-Jul-07 20:30N 50°04' W 125°13'0 0.0
2018-Jul-07 20:00N 50°04' W 125°13'0 0.0
2018-Jul-07 19:30N 50°04' W 125°13'0 0.0
2018-Jul-07 19:00N 50°04' W 125°13'0 0.0
2018-Jul-07 18:30N 50°04' W 125°13'0 0.0
2018-Jul-07 18:00N 50°04' W 125°13'0 0.0
2018-Jul-07 17:30N 50°04' W 125°13'0 0.0
2018-Jul-07 17:00N 50°04' W 125°13'0 0.0
2018-Jul-07 16:30N 50°04' W 125°13'0 0.0
2018-Jul-07 16:00N 50°04' W 125°13'0 0.0
2018-Jul-07 15:30N 50°04' W 125°13'0 0.0
2018-Jul-07 15:01N 50°04' W 125°13'0 0.0
2018-Jul-07 14:30N 50°04' W 125°13'0 0.0
2018-Jul-07 14:00N 50°04' W 125°13'0 0.0
2018-Jul-07 13:30N 50°04' W 125°13'0 0.0
2018-Jul-07 13:00N 50°04' W 125°13'0 0.0
2018-Jul-07 12:30N 50°04' W 125°13'0 0.1
2018-Jul-07 12:00N 50°04' W 125°13'0 0.0
2018-Jul-07 11:30N 50°04' W 125°13'0 0.0
2018-Jul-07 11:00N 50°04' W 125°13'0 0.0
2018-Jul-07 10:30N 50°04' W 125°13'0 0.1
2018-Jul-07 10:01N 50°04' W 125°13'0 0.0
2018-Jul-07 09:30N 50°04' W 125°13'0 0.0
2018-Jul-07 09:00N 50°04' W 125°13'0 0.0
2018-Jul-07 08:30N 50°04' W 125°13'0 0.1
2018-Jul-07 07:59N 50°04' W 125°13'0 0.0
2018-Jul-07 07:30N 50°04' W 125°13'0 0.1
2018-Jul-07 07:00N 50°04' W 125°13'0 0.0
2018-Jul-07 06:30N 50°04' W 125°13'0 0.0
2018-Jul-07 06:00N 50°04' W 125°13'0 0.0
2018-Jul-07 05:30N 50°04' W 125°13'0 0.0
2018-Jul-07 05:00N 50°04' W 125°13'0 0.0
2018-Jul-07 04:30N 50°04' W 125°13'0 0.0
2018-Jul-07 04:00N 50°04' W 125°13'0 0.0
2018-Jul-07 03:30N 50°04' W 125°13'0 0.0
2018-Jul-07 03:00N 50°04' W 125°13'0 0.0
2018-Jul-07 02:30N 50°04' W 125°13'0 0.0
2018-Jul-07 02:00N 50°04' W 125°13'0 0.1
2018-Jul-07 01:30N 50°04' W 125°13'0 0.1
2018-Jul-07 00:57N 50°04' W 125°13'0 0.0
2018-Jul-07 00:30N 50°04' W 125°13'0 0.0
2018-Jul-07 00:00N 50°04' W 125°13'0 0.0
2018-Jul-06 23:30N 50°04' W 125°13'0 0.0
2018-Jul-06 23:01N 50°04' W 125°13'0 0.0
2018-Jul-06 22:30N 50°04' W 125°13'0 0.0
2018-Jul-06 22:00N 50°04' W 125°13'0 0.0
2018-Jul-06 21:30N 50°04' W 125°13'0 0.0
2018-Jul-06 21:00N 50°04' W 125°13'0 0.0
2018-Jul-06 20:30N 50°04' W 125°13'0 0.0
2018-Jul-06 20:00N 50°04' W 125°13'0 0.0
2018-Jul-06 19:30N 50°04' W 125°13'0 0.1
2018-Jul-06 19:00N 50°04' W 125°13'0 0.1
2018-Jul-06 18:30N 50°04' W 125°13'0 0.1
2018-Jul-06 18:00N 50°04' W 125°13'0 0.0
2018-Jul-06 17:30N 50°04' W 125°13'0 0.0
2018-Jul-06 17:00N 50°04' W 125°13'0 0.0
2018-Jul-06 16:29N 50°04' W 125°13'0 0.1
2018-Jul-06 16:00N 50°04' W 125°13'0 0.0
2018-Jul-06 15:30N 50°04' W 125°13'0 0.0
2018-Jul-06 15:00N 50°04' W 125°13'0 0.0
2018-Jul-06 14:30N 50°04' W 125°13'0 0.0
2018-Jul-06 14:00N 50°04' W 125°13'0 0.0
2018-Jul-06 13:30N 50°04' W 125°13'0 0.0
2018-Jul-06 12:59N 50°04' W 125°13'0 0.0
2018-Jul-06 12:30N 50°04' W 125°13'0 0.0
2018-Jul-06 12:00N 50°04' W 125°13'0 0.0
2018-Jul-06 11:30N 50°04' W 125°13'0 0.0
2018-Jul-06 11:00N 50°04' W 125°13'0 0.0
2018-Jul-06 10:30N 50°04' W 125°13'0 0.0
2018-Jul-06 10:00N 50°04' W 125°13'0 0.0
2018-Jul-06 09:30N 50°04' W 125°13'0 0.0
2018-Jul-06 09:00N 50°04' W 125°13'0 0.0
2018-Jul-06 08:28N 50°04' W 125°13'0 0.0
2018-Jul-06 08:00N 50°04' W 125°13'0 0.0
2018-Jul-06 07:28N 50°04' W 125°13'0 0.0
2018-Jul-06 07:00N 50°04' W 125°13'0 0.0
2018-Jul-06 06:29N 50°04' W 125°13'0 0.0
2018-Jul-06 06:00N 50°04' W 125°13'0 0.0
2018-Jul-06 05:30N 50°04' W 125°13'0 0.0
2018-Jul-06 05:00N 50°04' W 125°13'0 0.0
2018-Jul-06 04:29N 50°04' W 125°13'0 0.0
2018-Jul-06 04:00N 50°04' W 125°13'0 0.0
2018-Jul-06 03:30N 50°04' W 125°13'0 0.0
2018-Jul-06 02:59N 50°04' W 125°13'0 0.0
2018-Jul-06 02:30N 50°04' W 125°13'0 0.0
2018-Jul-06 02:00N 50°04' W 125°13'0 0.0
2018-Jul-06 01:30N 50°04' W 125°13'0 0.0
2018-Jul-06 01:00N 50°04' W 125°13'0 0.0
2018-Jul-06 00:30N 50°04' W 125°13'0 0.0
2018-Jul-06 00:00N 50°04' W 125°13'0 0.1
2018-Jul-05 23:30N 50°04' W 125°13'0 0.1
2018-Jul-05 23:00N 50°04' W 125°13'0 0.0
2018-Jul-05 22:29N 50°04' W 125°13'0 0.0
2018-Jul-05 22:00N 50°04' W 125°13'0 0.0
2018-Jul-05 21:30N 50°04' W 125°13'0 0.0
2018-Jul-05 21:00N 50°04' W 125°13'0 0.1
2018-Jul-05 20:30N 50°04' W 125°13'0 0.1
2018-Jul-05 20:00N 50°04' W 125°13'0 0.0
2018-Jul-05 19:30N 50°04' W 125°13'0 0.0
2018-Jul-05 19:00N 50°04' W 125°13'0 0.0
2018-Jul-05 18:30N 50°04' W 125°13'0 0.0
2018-Jul-05 18:00N 50°04' W 125°13'0 0.0
2018-Jul-05 17:30N 50°04' W 125°13'0 0.0
2018-Jul-05 17:00N 50°04' W 125°13'0 0.0
2018-Jul-05 16:30N 50°04' W 125°13'0 0.0
2018-Jul-05 16:00N 50°04' W 125°13'0 0.0
2018-Jul-05 15:30N 50°04' W 125°13'0 0.1
2018-Jul-05 15:00N 50°04' W 125°13'0 0.0
2018-Jul-05 14:00N 50°04' W 125°13'0 0.0
2018-Jul-05 13:29N 50°04' W 125°13'0 0.0
2018-Jul-05 13:00N 50°04' W 125°13'0 0.1
2018-Jul-05 12:29N 50°04' W 125°13'0 0.0
2018-Jul-05 12:00N 50°04' W 125°13'0 0.1
2018-Jul-05 11:30N 50°04' W 125°13'0 0.1
2018-Jul-05 11:00N 50°04' W 125°13'0 0.1
2018-Jul-05 10:30N 50°04' W 125°13'0 0.0
2018-Jul-05 10:00N 50°04' W 125°13'0 0.0
2018-Jul-05 09:30N 50°04' W 125°13'0 0.1
2018-Jul-05 09:00N 50°04' W 125°13'0 0.0
2018-Jul-05 08:30N 50°04' W 125°13'0 0.1
2018-Jul-05 08:00N 50°04' W 125°13'0 0.0
2018-Jul-05 07:30N 50°04' W 125°13'0 0.0
2018-Jul-05 07:00N 50°04' W 125°13'0 0.0
2018-Jul-05 06:30N 50°04' W 125°13'0 0.0
2018-Jul-05 05:59N 50°04' W 125°13'0 0.0
2018-Jul-05 05:30N 50°04' W 125°13'0 0.1
2018-Jul-05 05:00N 50°04' W 125°13'0 0.1
2018-Jul-05 04:30N 50°04' W 125°13'0 0.1
2018-Jul-05 04:00N 50°04' W 125°13'0 0.0
2018-Jul-05 03:24N 50°04' W 125°13'0 0.0
2018-Jul-05 03:00N 50°04' W 125°13'0 0.0
2018-Jul-05 02:30N 50°04' W 125°13'0 0.0
2018-Jul-05 02:00N 50°04' W 125°13'0 0.0
2018-Jul-05 01:30N 50°04' W 125°13'0 0.0
2018-Jul-05 01:00N 50°04' W 125°13'0 0.0
2018-Jul-05 00:20N 50°04' W 125°13'0 0.0
2018-Jul-05 00:00N 50°04' W 125°13'0 0.0
2018-Jul-04 23:30N 50°04' W 125°13'0 0.0
2018-Jul-04 23:00N 50°04' W 125°13'0 0.0
2018-Jul-04 22:30N 50°04' W 125°13'0 0.0
2018-Jul-04 22:00N 50°04' W 125°13'0 0.0
2018-Jul-04 21:29N 50°04' W 125°13'0 0.0
2018-Jul-04 21:00N 50°04' W 125°13'0 0.0
2018-Jul-04 20:30N 50°04' W 125°13'0 0.0
2018-Jul-04 20:00N 50°04' W 125°13'0 0.0
2018-Jul-04 19:31N 50°04' W 125°13'0 0.0
2018-Jul-04 18:58N 50°04' W 125°13'0 0.0
2018-Jul-04 18:30N 50°04' W 125°13'0 0.0
2018-Jul-04 17:59N 50°04' W 125°13'0 0.0
2018-Jul-04 17:30N 50°04' W 125°13'0 0.0
2018-Jul-04 17:00N 50°04' W 125°13'0 0.0
2018-Jul-04 16:30N 50°04' W 125°13'0 0.0
2018-Jul-04 15:59N 50°04' W 125°13'0 0.0
2018-Jul-04 15:29N 50°04' W 125°13'0 0.0
2018-Jul-04 15:00N 50°04' W 125°13'0 0.0
2018-Jul-04 14:30N 50°04' W 125°13'0 0.0
2018-Jul-04 14:00N 50°04' W 125°13'0 0.0
2018-Jul-04 13:30N 50°04' W 125°13'0 0.0
2018-Jul-04 13:00N 50°04' W 125°13'0 0.0
2018-Jul-04 12:30N 50°04' W 125°13'0 0.0
2018-Jul-04 12:00N 50°04' W 125°13'0 0.0
2018-Jul-04 11:30N 50°04' W 125°13'0 0.0
2018-Jul-04 11:00N 50°04' W 125°13'0 0.0
2018-Jul-04 10:30N 50°04' W 125°13'0 0.0
2018-Jul-04 10:00N 50°04' W 125°13'0 0.0
2018-Jul-04 09:30N 50°04' W 125°13'0 0.0
2018-Jul-04 08:58N 50°04' W 125°13'0 0.0
2018-Jul-04 08:30N 50°04' W 125°13'0 0.0
2018-Jul-04 08:00N 50°04' W 125°13'0 0.0
2018-Jul-04 07:31N 50°04' W 125°13'0 0.0
2018-Jul-04 07:00N 50°04' W 125°13'0 0.0
2018-Jul-04 06:30N 50°04' W 125°13'0 0.0
2018-Jul-04 06:00N 50°04' W 125°13'0 0.0
2018-Jul-04 05:30N 50°04' W 125°13'0 0.0
2018-Jul-04 05:00N 50°04' W 125°13'0 0.0
2018-Jul-04 04:30N 50°04' W 125°13'0 0.0
2018-Jul-04 04:00N 50°04' W 125°13'0 0.0
2018-Jul-04 03:30N 50°04' W 125°13'0 0.0
2018-Jul-04 03:00N 50°04' W 125°13'0 0.0
2018-Jul-04 02:29N 50°04' W 125°13'0 0.0
2018-Jul-04 02:00N 50°04' W 125°13'0 0.0
2018-Jul-04 01:30N 50°04' W 125°13'0 0.0
2018-Jul-04 01:00N 50°04' W 125°13'0 0.0
2018-Jul-04 00:30N 50°04' W 125°13'0 0.0
2018-Jul-04 00:00N 50°04' W 125°13'0 0.0
2018-Jul-03 23:30N 50°04' W 125°13'0 0.0
2018-Jul-03 23:00N 50°04' W 125°13'0 0.0
2018-Jul-03 22:30N 50°04' W 125°13'0 0.0
2018-Jul-03 22:01N 50°04' W 125°13'0 0.0
2018-Jul-03 21:30N 50°04' W 125°13'0 0.0
2018-Jul-03 21:00N 50°04' W 125°13'0 0.0
2018-Jul-03 20:30N 50°04' W 125°13'0 0.0
2018-Jul-03 20:00N 50°04' W 125°13'0 0.0
2018-Jul-03 19:30N 50°04' W 125°13'0 0.0
2018-Jul-03 19:00N 50°04' W 125°13'0 0.0
2018-Jul-03 18:30N 50°04' W 125°13'0 0.0
2018-Jul-03 18:00N 50°04' W 125°13'0 0.0
2018-Jul-03 17:30N 50°04' W 125°13'0 0.0
2018-Jul-03 17:00N 50°04' W 125°13'  

Dump ship's entire track history